createdAt,value
2018-09-17T00:01:51.655Z,11.20
2018-09-17T00:04:20.729Z,11.20
2018-09-17T00:06:49.867Z,11.20
2018-09-17T00:09:18.973Z,11.10
2018-09-17T00:11:47.944Z,11.10
2018-09-17T00:14:16.944Z,11.00
2018-09-17T00:16:45.953Z,11.00
2018-09-17T00:19:14.945Z,11.00
2018-09-17T00:21:43.923Z,10.90
2018-09-17T00:24:12.925Z,10.90
2018-09-17T00:26:42.025Z,10.90
2018-09-17T00:29:11.121Z,10.90
2018-09-17T00:31:40.097Z,10.80
2018-09-17T00:34:09.539Z,10.80
2018-09-17T00:36:39.626Z,10.80
2018-09-17T00:39:09.862Z,10.80
2018-09-17T00:41:38.827Z,10.80
2018-09-17T00:44:07.833Z,10.80
2018-09-17T00:46:36.946Z,10.80
2018-09-17T00:49:06.010Z,10.80
2018-09-17T00:51:34.991Z,10.70
2018-09-17T00:54:04.086Z,10.70
2018-09-17T00:56:33.230Z,10.60
2018-09-17T00:59:02.250Z,10.60
2018-09-17T01:01:31.269Z,10.50
2018-09-17T01:04:00.255Z,10.50
2018-09-17T01:06:29.250Z,10.50
2018-09-17T01:08:58.225Z,10.50
2018-09-17T01:11:27.253Z,10.40
2018-09-17T01:13:56.254Z,10.40
2018-09-17T01:16:25.235Z,10.40
2018-09-17T01:18:54.314Z,10.40
2018-09-17T01:21:23.329Z,10.40
2018-09-17T01:23:52.289Z,10.40
2018-09-17T01:26:21.258Z,10.40
2018-09-17T01:28:50.238Z,10.30
2018-09-17T01:31:19.263Z,10.30
2018-09-17T01:33:48.253Z,10.30
2018-09-17T01:36:17.218Z,10.30
2018-09-17T01:38:46.219Z,10.30
2018-09-17T01:41:15.275Z,10.30
2018-09-17T01:43:44.357Z,10.30
2018-09-17T01:46:13.439Z,10.30
2018-09-17T01:48:42.524Z,10.30
2018-09-17T01:51:11.562Z,10.30
2018-09-17T01:53:40.547Z,10.30
2018-09-17T01:56:09.628Z,10.30
2018-09-17T01:58:38.626Z,10.30
2018-09-17T02:01:07.673Z,10.30
2018-09-17T02:03:36.642Z,10.30
2018-09-17T02:06:05.795Z,10.40
2018-09-17T02:08:34.865Z,10.40
2018-09-17T02:11:03.872Z,10.40
2018-09-17T02:13:32.942Z,10.50
2018-09-17T02:16:01.955Z,10.50
2018-09-17T02:18:30.965Z,10.60
2018-09-17T02:20:59.932Z,10.60
2018-09-17T02:23:28.981Z,10.60
2018-09-17T02:25:58.073Z,10.60
2018-09-17T02:28:27.463Z,10.60
2018-09-17T02:30:56.469Z,10.70
2018-09-17T02:33:25.837Z,10.60
2018-09-17T02:35:54.824Z,10.60
2018-09-17T02:38:23.869Z,10.50
2018-09-17T02:40:52.866Z,10.50
2018-09-17T02:43:21.831Z,10.40
2018-09-17T02:45:50.818Z,10.40
2018-09-17T02:48:19.914Z,10.40
2018-09-17T02:50:48.930Z,10.40
2018-09-17T02:53:18.037Z,10.40
2018-09-17T02:55:47.013Z,10.40
2018-09-17T02:58:16.054Z,10.40
2018-09-17T03:00:45.013Z,10.30
2018-09-17T03:03:13.972Z,10.30
2018-09-17T03:05:42.953Z,10.20
2018-09-17T03:08:11.970Z,10.20
2018-09-17T03:10:41.010Z,10.20
2018-09-17T03:13:09.994Z,10.20
2018-09-17T03:15:48.060Z,10.20
2018-09-17T03:18:22.151Z,10.20
2018-09-17T03:20:51.150Z,10.20
2018-09-17T03:23:20.267Z,10.20
2018-09-17T03:25:49.567Z,10.10
2018-09-17T03:28:18.580Z,10.10
2018-09-17T03:30:47.570Z,10.10
2018-09-17T03:33:16.593Z,10.10
2018-09-17T03:35:45.566Z,10.10
2018-09-17T03:38:42.889Z,10.10
2018-09-17T03:41:12.569Z,10.10
2018-09-17T03:43:42.832Z,10.10
2018-09-17T03:46:11.938Z,10.20
2018-09-17T03:48:41.450Z,10.20
2018-09-17T03:51:11.079Z,10.20
2018-09-17T03:53:40.441Z,10.20
2018-09-17T03:56:09.427Z,10.20
2018-09-17T03:58:38.444Z,10.20
2018-09-17T04:01:07.602Z,10.20
2018-09-17T04:03:36.599Z,10.30
2018-09-17T04:06:05.615Z,10.30
2018-09-17T04:08:34.570Z,10.30
2018-09-17T04:11:03.598Z,10.30
2018-09-17T04:13:32.595Z,10.30
2018-09-17T04:16:01.630Z,10.30
2018-09-17T04:18:30.691Z,10.40
2018-09-17T04:20:59.665Z,10.40
2018-09-17T04:23:32.512Z,10.40
2018-09-17T04:26:01.838Z,10.40
2018-09-17T04:28:30.893Z,10.40
2018-09-17T04:30:59.970Z,10.50
2018-09-17T04:33:31.596Z,10.50
2018-09-17T04:36:00.742Z,10.50
2018-09-17T04:38:29.728Z,10.50
2018-09-17T04:40:58.923Z,10.40
2018-09-17T04:43:27.916Z,10.40
2018-09-17T04:45:56.960Z,10.40
2018-09-17T04:48:25.945Z,10.40
2018-09-17T04:50:54.938Z,10.30
2018-09-17T04:53:23.999Z,10.40
2018-09-17T04:55:53.082Z,10.40
2018-09-17T04:58:22.289Z,10.40
2018-09-17T05:00:51.440Z,10.40
2018-09-17T05:03:20.535Z,10.40
2018-09-17T05:05:49.678Z,10.40
2018-09-17T05:08:18.845Z,10.30
2018-09-17T05:10:47.877Z,10.30
2018-09-17T05:13:16.887Z,10.30
2018-09-17T05:15:45.870Z,10.30
2018-09-17T05:18:14.949Z,10.30
2018-09-17T05:20:44.035Z,10.40
2018-09-17T05:23:12.953Z,10.40
2018-09-17T05:25:41.922Z,10.40
2018-09-17T05:28:10.929Z,10.40
2018-09-17T05:30:40.028Z,10.50
2018-09-17T05:33:09.013Z,10.50
2018-09-17T05:35:38.138Z,10.50
2018-09-17T05:38:07.156Z,10.50
2018-09-17T05:40:36.149Z,10.50
2018-09-17T05:43:05.197Z,10.60
2018-09-17T05:45:34.235Z,10.60
2018-09-17T05:48:03.393Z,10.70
2018-09-17T05:50:32.361Z,10.80
2018-09-17T05:53:01.377Z,10.80
2018-09-17T05:55:30.353Z,10.90
2018-09-17T05:57:59.352Z,11.00
2018-09-17T06:00:28.341Z,11.10
2018-09-17T06:02:58.002Z,11.10
2018-09-17T06:05:27.241Z,11.20
2018-09-17T06:07:56.299Z,11.20
2018-09-17T06:10:25.288Z,11.30
2018-09-17T06:12:54.279Z,11.30
2018-09-17T06:15:23.610Z,11.40
2018-09-17T06:17:52.626Z,11.50
2018-09-17T06:20:21.618Z,11.60
2018-09-17T06:22:50.862Z,11.60
2018-09-17T06:25:20.026Z,11.80
2018-09-17T06:27:49.186Z,11.90
2018-09-17T06:30:18.328Z,11.90
2018-09-17T06:32:47.516Z,12.10
2018-09-17T06:35:16.641Z,12.20
2018-09-17T06:37:45.847Z,12.40
2018-09-17T06:40:15.064Z,12.50
2018-09-17T06:42:44.053Z,12.70
2018-09-17T06:45:13.142Z,12.80
2018-09-17T06:47:42.219Z,13.00
2018-09-17T06:50:11.294Z,13.30
2018-09-17T06:52:40.459Z,13.50
2018-09-17T06:55:09.496Z,13.70
2018-09-17T06:57:38.626Z,13.90
2018-09-17T07:00:08.865Z,14.20
2018-09-17T07:02:37.930Z,14.50
2018-09-17T07:05:07.041Z,14.80
2018-09-17T07:07:36.070Z,15.10
2018-09-17T07:10:05.439Z,15.30
2018-09-17T07:12:34.475Z,15.40
2018-09-17T07:15:03.602Z,15.60
2018-09-17T07:17:32.728Z,15.80
2018-09-17T07:20:01.798Z,15.90
2018-09-17T07:22:30.854Z,16.10
2018-09-17T07:24:59.852Z,16.20
2018-09-17T07:27:28.891Z,16.50
2018-09-17T07:29:58.011Z,16.60
2018-09-17T07:32:27.062Z,16.70
2018-09-17T07:34:56.174Z,16.80
2018-09-17T07:37:25.256Z,16.90
2018-09-17T07:39:54.233Z,17.00
2018-09-17T07:42:23.253Z,17.10
2018-09-17T07:44:52.241Z,17.20
2018-09-17T07:47:21.242Z,17.20
2018-09-17T07:49:50.329Z,17.20
2018-09-17T07:52:19.581Z,17.30
2018-09-17T07:54:48.602Z,17.40
2018-09-17T07:57:17.582Z,17.40
2018-09-17T07:59:46.601Z,17.50
2018-09-17T08:02:15.592Z,17.50
2018-09-17T08:04:44.679Z,17.50
2018-09-17T08:07:13.715Z,17.60
2018-09-17T08:09:42.749Z,17.60
2018-09-17T08:12:11.810Z,17.70
2018-09-17T08:14:40.859Z,17.80
2018-09-17T08:17:09.885Z,18.00
2018-09-17T08:19:38.971Z,18.10
2018-09-17T08:22:07.864Z,18.10
2018-09-17T08:24:36.984Z,18.30
2018-09-17T08:27:06.147Z,18.40
2018-09-17T08:29:35.266Z,18.50
2018-09-17T08:32:04.335Z,18.50
2018-09-17T08:34:33.535Z,18.60
2018-09-17T08:37:02.609Z,18.70
2018-09-17T08:39:31.590Z,18.80
2018-09-17T08:42:00.636Z,19.10
2018-09-17T08:44:29.626Z,19.30
2018-09-17T08:46:58.620Z,19.50
2018-09-17T08:49:27.669Z,19.70
2018-09-17T08:51:56.676Z,19.80
2018-09-17T08:54:25.770Z,19.90
2018-09-17T08:56:59.535Z,20.10
2018-09-17T08:59:33.973Z,20.10
2018-09-17T09:02:15.808Z,20.20
2018-09-17T09:04:50.350Z,20.40
2018-09-17T09:07:24.956Z,20.70
2018-09-17T09:09:58.169Z,21.00
2018-09-17T09:12:31.481Z,21.20
2018-09-17T09:15:05.965Z,21.30
2018-09-17T09:17:34.954Z,21.60
2018-09-17T09:20:04.002Z,21.80
2018-09-17T09:22:33.037Z,22.20
2018-09-17T09:25:02.041Z,22.50
2018-09-17T09:27:31.120Z,22.70
2018-09-17T09:30:00.130Z,22.90
2018-09-17T09:32:29.095Z,23.10
2018-09-17T09:34:58.102Z,23.20
2018-09-17T09:37:27.269Z,23.20
2018-09-17T09:39:57.308Z,23.30
2018-09-17T09:42:26.300Z,23.50
2018-09-17T09:44:55.581Z,23.60
2018-09-17T09:47:24.599Z,23.70
2018-09-17T09:49:53.590Z,23.70
2018-09-17T09:52:22.654Z,23.80
2018-09-17T09:54:51.677Z,24.00
2018-09-17T09:57:20.729Z,24.30
2018-09-17T09:59:49.807Z,24.50
2018-09-17T10:02:24.261Z,24.50
2018-09-17T10:04:53.351Z,24.50
2018-09-17T10:07:22.387Z,24.50
2018-09-17T10:09:56.722Z,24.80
2018-09-17T10:12:30.996Z,25.00
2018-09-17T10:15:05.479Z,25.00
2018-09-17T10:17:39.862Z,25.00
2018-09-17T10:20:08.899Z,25.10
2018-09-17T10:22:37.985Z,25.10
2018-09-17T10:25:07.182Z,25.30
2018-09-17T10:27:36.289Z,25.40
2018-09-17T10:30:05.825Z,25.50
2018-09-17T10:32:34.834Z,25.60
2018-09-17T10:35:04.957Z,25.80
2018-09-17T10:37:33.981Z,25.60
2018-09-17T10:40:02.998Z,25.60
2018-09-17T10:42:31.986Z,25.50
2018-09-17T10:45:01.042Z,25.50
2018-09-17T10:47:30.038Z,25.40
2018-09-17T10:49:59.036Z,25.40
2018-09-17T10:52:28.034Z,25.20
2018-09-17T10:54:57.123Z,25.10
2018-09-17T10:57:26.105Z,25.10
2018-09-17T10:59:55.434Z,25.10
2018-09-17T11:02:24.435Z,25.20
2018-09-17T11:04:53.549Z,25.30
2018-09-17T11:07:22.622Z,25.60
2018-09-17T11:09:51.582Z,25.80
2018-09-17T11:12:20.585Z,26.00
2018-09-17T11:14:49.630Z,26.30
2018-09-17T11:17:18.804Z,26.40
2018-09-17T11:19:47.799Z,26.50
2018-09-17T11:22:16.804Z,26.40
2018-09-17T11:24:45.869Z,26.30
2018-09-17T11:27:14.832Z,26.30
2018-09-17T11:29:43.893Z,26.10
2018-09-17T11:32:13.004Z,26.10
2018-09-17T11:34:42.068Z,26.10
2018-09-17T11:37:11.019Z,26.30
2018-09-17T11:39:40.082Z,26.40
2018-09-17T11:42:09.160Z,26.50
2018-09-17T11:44:38.380Z,26.50
2018-09-17T11:47:07.412Z,26.50
2018-09-17T11:49:36.393Z,26.70
2018-09-17T11:52:05.366Z,26.70
2018-09-17T11:54:34.333Z,26.80
2018-09-17T11:57:03.361Z,26.90
2018-09-17T11:59:32.450Z,26.80
2018-09-17T12:02:04.968Z,26.60
2018-09-17T12:04:39.415Z,26.90
2018-09-17T12:07:13.932Z,27.10
2018-09-17T12:09:43.024Z,27.30
2018-09-17T12:12:13.020Z,27.20
2018-09-17T12:14:42.057Z,27.00
2018-09-17T12:17:11.081Z,26.90
2018-09-17T12:19:40.126Z,27.10
2018-09-17T12:22:09.115Z,27.00
2018-09-17T12:24:38.094Z,26.90
2018-09-17T12:27:07.162Z,27.10
2018-09-17T12:29:36.208Z,27.10
2018-09-17T12:32:05.317Z,27.00
2018-09-17T12:34:34.560Z,27.00
2018-09-17T12:37:03.593Z,26.90
2018-09-17T12:39:32.671Z,26.90
2018-09-17T12:42:01.665Z,26.70
2018-09-17T12:44:30.681Z,26.70
2018-09-17T12:46:59.746Z,26.90
2018-09-17T12:49:29.947Z,27.20
2018-09-17T12:51:58.945Z,27.00
2018-09-17T12:54:27.965Z,27.10
2018-09-17T12:56:57.014Z,27.20
2018-09-17T12:59:26.077Z,27.30
2018-09-17T13:01:55.179Z,27.40
2018-09-17T13:04:24.251Z,27.50
2018-09-17T13:06:53.339Z,27.50
2018-09-17T13:09:22.356Z,27.20
2018-09-17T13:11:51.352Z,27.30
2018-09-17T13:14:20.286Z,27.40
2018-09-17T13:16:49.250Z,27.50
2018-09-17T13:19:18.332Z,27.60
2018-09-17T13:21:47.265Z,27.90
2018-09-17T13:24:16.330Z,27.90
2018-09-17T13:26:45.421Z,28.00
2018-09-17T13:29:14.449Z,27.80
2018-09-17T13:31:43.518Z,27.80
2018-09-17T13:34:12.486Z,28.00
2018-09-17T13:36:41.554Z,28.00
2018-09-17T13:39:10.479Z,28.00
2018-09-17T13:41:39.535Z,28.10
2018-09-17T13:44:08.580Z,27.90
2018-09-17T13:46:37.626Z,28.00
2018-09-17T13:49:06.634Z,28.20
2018-09-17T13:51:35.568Z,28.10
2018-09-17T13:54:04.644Z,28.00
2018-09-17T13:56:33.635Z,28.10
2018-09-17T13:59:02.628Z,28.00
2018-09-17T14:01:31.593Z,28.00
2018-09-17T14:04:00.887Z,28.10
2018-09-17T14:06:29.891Z,28.00
2018-09-17T14:08:59.348Z,27.80
2018-09-17T14:11:28.281Z,27.80
2018-09-17T14:13:57.433Z,27.70
2018-09-17T14:16:31.753Z,27.70
2018-09-17T14:19:00.887Z,27.80
2018-09-17T14:21:30.292Z,27.80
2018-09-17T14:23:59.887Z,27.90
2018-09-17T14:26:29.350Z,28.00
2018-09-17T14:28:58.860Z,27.90
2018-09-17T14:31:33.201Z,27.80
2018-09-17T14:34:02.445Z,27.90
2018-09-17T14:36:31.767Z,27.90
2018-09-17T14:39:00.771Z,27.80
2018-09-17T14:41:29.853Z,27.80
2018-09-17T14:43:58.846Z,27.90
2018-09-17T14:46:27.861Z,27.80
2018-09-17T14:48:56.801Z,27.60
2018-09-17T14:51:25.932Z,27.50
2018-09-17T14:53:55.015Z,27.50
2018-09-17T14:56:24.018Z,27.30
2018-09-17T14:58:53.064Z,27.20
2018-09-17T15:01:22.126Z,27.20
2018-09-17T15:03:51.012Z,27.20
2018-09-17T15:06:20.001Z,27.30
2018-09-17T15:08:49.122Z,27.30
2018-09-17T15:11:18.097Z,27.10
2018-09-17T15:13:47.213Z,26.90
2018-09-17T15:16:16.194Z,26.70
2018-09-17T15:18:45.193Z,26.80
2018-09-17T15:21:14.244Z,26.80
2018-09-17T15:23:43.370Z,26.80
2018-09-17T15:26:12.392Z,26.70
2018-09-17T15:28:41.326Z,26.70
2018-09-17T15:31:10.301Z,26.70
2018-09-17T15:33:39.249Z,26.80
2018-09-17T15:36:08.319Z,26.80
2018-09-17T15:38:37.394Z,26.80
2018-09-17T15:41:06.434Z,26.80
2018-09-17T15:43:35.722Z,26.70
2018-09-17T15:46:04.834Z,26.50
2018-09-17T15:48:33.747Z,26.50
2018-09-17T15:51:02.869Z,26.40
2018-09-17T15:53:31.810Z,26.20
2018-09-17T15:56:01.031Z,26.30
2018-09-17T15:58:29.983Z,26.30
2018-09-17T16:00:58.977Z,26.30
2018-09-17T16:03:27.926Z,26.30
2018-09-17T16:05:56.961Z,26.30
2018-09-17T16:08:26.068Z,26.30
2018-09-17T16:10:55.184Z,26.20
2018-09-17T16:13:24.180Z,26.10
2018-09-17T16:15:53.202Z,26.10
2018-09-17T16:18:22.246Z,26.10
2018-09-17T16:20:51.251Z,26.10
2018-09-17T16:23:20.361Z,26.00
2018-09-17T16:25:49.447Z,25.90
2018-09-17T16:28:18.544Z,25.80
2018-09-17T16:30:47.573Z,25.70
2018-09-17T16:33:16.647Z,25.70
2018-09-17T16:35:47.649Z,25.60
2018-09-17T16:38:16.661Z,25.60
2018-09-17T16:40:45.994Z,25.60
2018-09-17T16:43:14.957Z,25.60
2018-09-17T16:45:43.910Z,25.50
2018-09-17T16:48:12.976Z,25.50
2018-09-17T16:50:42.026Z,25.50
2018-09-17T16:53:11.089Z,25.40
2018-09-17T16:55:40.011Z,25.30
2018-09-17T16:58:09.110Z,25.20
2018-09-17T17:00:38.056Z,25.10
2018-09-17T17:03:07.101Z,25.00
2018-09-17T17:05:36.173Z,24.80
2018-09-17T17:08:05.261Z,24.70
2018-09-17T17:10:34.274Z,24.50
2018-09-17T17:13:03.309Z,24.30
2018-09-17T17:15:32.337Z,24.10
2018-09-17T17:18:01.483Z,23.90
2018-09-17T17:20:30.448Z,23.70
2018-09-17T17:22:59.462Z,23.60
2018-09-17T17:25:28.441Z,23.30
2018-09-17T17:27:57.565Z,23.10
2018-09-17T17:30:26.601Z,22.90
2018-09-17T17:32:55.626Z,22.70
2018-09-17T17:35:24.607Z,22.60
2018-09-17T17:37:53.665Z,22.30
2018-09-17T17:40:22.792Z,22.20
2018-09-17T17:42:51.679Z,22.00
2018-09-17T17:45:20.658Z,21.80
2018-09-17T17:47:49.768Z,21.70
2018-09-17T17:50:19.801Z,21.50
2018-09-17T17:52:48.940Z,21.30
2018-09-17T17:55:18.020Z,21.10
2018-09-17T17:57:47.303Z,21.00
2018-09-17T18:00:16.526Z,20.90
2018-09-17T18:02:45.627Z,20.70
2018-09-17T18:05:14.910Z,20.60
2018-09-17T18:07:44.024Z,20.50
2018-09-17T18:10:13.075Z,20.30
2018-09-17T18:12:42.238Z,20.20
2018-09-17T18:15:11.348Z,20.00
2018-09-17T18:17:40.261Z,19.90
2018-09-17T18:20:09.333Z,19.80
2018-09-17T18:22:38.325Z,19.60
2018-09-17T18:25:07.354Z,19.50
2018-09-17T18:27:36.349Z,19.40
2018-09-17T18:30:05.694Z,19.30
2018-09-17T18:32:35.556Z,19.20
2018-09-17T18:35:05.747Z,19.10
2018-09-17T18:37:34.827Z,18.90
2018-09-17T18:40:03.922Z,18.80
2018-09-17T18:42:33.046Z,18.70
2018-09-17T18:45:02.074Z,18.60
2018-09-17T18:47:30.938Z,18.50
2018-09-17T18:49:59.986Z,18.40
2018-09-17T18:52:29.054Z,18.30
2018-09-17T18:54:58.066Z,18.20
2018-09-17T18:57:27.101Z,18.10
2018-09-17T18:59:56.042Z,18.00
2018-09-17T19:02:24.958Z,17.90
2018-09-17T19:04:54.054Z,17.70
2018-09-17T19:07:23.415Z,17.70
2018-09-17T19:09:52.426Z,17.60
2018-09-17T19:12:21.739Z,17.50
2018-09-17T19:14:55.959Z,17.40
2018-09-17T19:17:30.110Z,17.40
2018-09-17T19:20:00.637Z,17.20
2018-09-17T19:22:34.875Z,17.10
2018-09-17T19:25:03.925Z,17.10
2018-09-17T19:27:38.413Z,17.00
2018-09-17T19:30:07.638Z,16.90
2018-09-17T19:32:36.626Z,16.80
2018-09-17T19:35:05.731Z,16.70
2018-09-17T19:37:40.034Z,16.60
2018-09-17T19:40:18.624Z,16.60
2018-09-17T19:42:48.365Z,16.50
2018-09-17T19:45:22.672Z,16.40
2018-09-17T19:47:52.318Z,16.40
2018-09-17T19:50:26.901Z,16.30
2018-09-17T19:52:55.993Z,16.20
2018-09-17T19:55:25.060Z,16.10
2018-09-17T19:57:59.404Z,16.10
2018-09-17T20:00:28.642Z,16.00
2018-09-17T20:02:57.557Z,16.00
2018-09-17T20:05:31.853Z,15.90
2018-09-17T20:08:00.888Z,15.80
2018-09-17T20:10:29.897Z,15.80
2018-09-17T20:12:58.853Z,15.70
2018-09-17T20:15:27.938Z,15.70
2018-09-17T20:17:57.031Z,15.60
2018-09-17T20:20:26.151Z,15.50
2018-09-17T20:22:55.169Z,15.50
2018-09-17T20:25:24.178Z,15.40
2018-09-17T20:27:53.210Z,15.40
2018-09-17T20:30:22.153Z,15.30
2018-09-17T20:32:51.337Z,15.30
2018-09-17T20:35:20.607Z,15.20
2018-09-17T20:37:49.592Z,15.20
2018-09-17T20:40:18.563Z,15.20
2018-09-17T20:42:47.526Z,15.10
2018-09-17T20:45:16.552Z,15.00
2018-09-17T20:47:45.502Z,15.00
2018-09-17T20:50:14.506Z,14.90
2018-09-17T20:52:43.742Z,14.90
2018-09-17T20:55:12.783Z,14.80
2018-09-17T20:57:41.734Z,14.80
2018-09-17T21:00:10.800Z,14.70
2018-09-17T21:02:39.805Z,14.80
2018-09-17T21:05:10.920Z,14.70
2018-09-17T21:07:40.980Z,14.80
2018-09-17T21:10:10.991Z,14.80
2018-09-17T21:12:40.125Z,14.80
2018-09-17T21:15:09.135Z,14.80
2018-09-17T21:17:38.193Z,14.70
2018-09-17T21:20:07.281Z,14.70
2018-09-17T21:22:36.609Z,14.60
2018-09-17T21:25:05.665Z,14.50
2018-09-17T21:27:34.617Z,14.50
2018-09-17T21:30:03.724Z,14.40
2018-09-17T21:32:32.662Z,14.40
2018-09-17T21:35:01.763Z,14.30
2018-09-17T21:37:30.791Z,14.30
2018-09-17T21:39:59.810Z,14.20
2018-09-17T21:42:29.826Z,14.10
2018-09-17T21:44:58.859Z,14.00
2018-09-17T21:47:27.858Z,14.00
2018-09-17T21:49:56.911Z,13.90
2018-09-17T21:52:25.935Z,13.80
2018-09-17T21:54:54.901Z,13.80
2018-09-17T21:57:23.863Z,13.70
2018-09-17T21:59:53.065Z,13.70
2018-09-17T22:02:22.073Z,13.60
2018-09-17T22:04:50.991Z,13.50
2018-09-17T22:07:21.142Z,13.50
2018-09-17T22:09:50.175Z,13.50
2018-09-17T22:12:19.154Z,13.50
2018-09-17T22:14:48.142Z,13.40
2018-09-17T22:17:17.188Z,13.40
2018-09-17T22:19:46.244Z,13.30
2018-09-17T22:22:15.272Z,13.30
2018-09-17T22:24:44.331Z,13.20
2018-09-17T22:27:13.254Z,13.20
2018-09-17T22:29:42.272Z,13.10
2018-09-17T22:32:11.570Z,13.10
2018-09-17T22:34:40.650Z,13.10
2018-09-17T22:37:09.658Z,13.00
2018-09-17T22:39:38.652Z,13.00
2018-09-17T22:42:07.757Z,12.90
2018-09-17T22:44:36.742Z,12.90
2018-09-17T22:47:05.901Z,12.90
2018-09-17T22:49:34.927Z,12.80
2018-09-17T22:52:03.994Z,12.80
2018-09-17T22:54:32.961Z,12.70
2018-09-17T22:57:01.927Z,12.70
2018-09-17T22:59:30.869Z,12.70
2018-09-17T23:01:59.865Z,12.60
2018-09-17T23:04:28.834Z,12.60
2018-09-17T23:06:57.795Z,12.60
2018-09-17T23:09:26.769Z,12.50
2018-09-17T23:11:55.733Z,12.50
2018-09-17T23:14:24.723Z,12.40
2018-09-17T23:16:53.666Z,12.40
2018-09-17T23:19:22.964Z,12.40
2018-09-17T23:21:51.942Z,12.40
2018-09-17T23:24:20.922Z,12.30
2018-09-17T23:26:49.889Z,12.30
2018-09-17T23:29:18.849Z,12.30
2018-09-17T23:31:47.915Z,12.30
2018-09-17T23:34:16.920Z,12.30
2018-09-17T23:36:45.909Z,12.30
2018-09-17T23:39:14.891Z,12.30
2018-09-17T23:41:43.899Z,12.20
2018-09-17T23:44:12.904Z,12.20
2018-09-17T23:46:41.990Z,12.20
2018-09-17T23:49:10.986Z,12.20
2018-09-17T23:51:39.965Z,12.20
2018-09-17T23:54:09.056Z,12.20
2018-09-17T23:56:38.152Z,12.20
2018-09-17T23:59:07.116Z,12.20
